Metar Aviation Weather Data KVNC Venice Municipal

61°F Temp
46°F Dewpoint
59% Humidity
Temperature
13 MPH
21 KM/H
11 KTS
300°
West North
West

Wind Speed
Clear
Conditions
Pressure 1023.02 (hPa) - 30.21 (in)
Visibility 10.0 (mi) - 16 (km)

Current Conditions
KVNC
Venice Municipal
Metar :KVNC 161935Z AUTO 30011KT 10SM CLR 16/08 A3021 RMK AO2
Wed 16th January 15:35 pm

Venice Municipal
  Metar Aviation API Data Provided by https://www.checkwx.com/ PHP scripts by weather34.com ©2019